Time;durP1;ratioP1;P1;durP2;ratioP2;P2;SDS_P1;SDS_P2;PMS_P1;PMS_P2;Temp;Humidity;BMP_temperature;BMP_pressure;BME280_temperature;BME280_humidity;BME280_pressure;Samples;Min_cycle;Max_cycle;Signal;HPM_P1;HPM_P2
2023/12/09 00:01:46;;;;;;;48.47;26.05;;;;;;;9.13;81.67;99301.88;5014259;28;20140;-76
2023/12/09 00:04:13;;;;;;;52.45;26.98;;;;;;;9.12;81.39;99300.16;5013995;28;20181;-76
2023/12/09 00:06:49;;;;;;;52.78;27.77;;;;;;;9.08;81.08;99296.03;5013967;28;20100;-75
2023/12/09 00:09:19;;;;;;;49.10;26.83;;;;;;;9.11;81.40;99309.81;5014093;28;20050;-75
2023/12/09 00:11:46;;;;;;;54.65;25.98;;;;;;;9.10;81.62;99297.63;5013042;28;20546;-76
2023/12/09 00:14:12;;;;;;;52.92;26.08;;;;;;;9.11;81.55;99307.19;5013696;28;20446;-76
2023/12/09 00:16:40;;;;;;;50.22;24.83;;;;;;;9.12;81.62;99305.41;5013874;28;20112;-76
2023/12/09 00:19:08;;;;;;;57.53;25.92;;;;;;;9.12;81.68;99308.88;5013677;28;20054;-77
2023/12/09 00:21:35;;;;;;;49.72;24.60;;;;;;;9.13;81.44;99302.69;5012880;28;20049;-76
2023/12/09 00:24:02;;;;;;;47.15;23.92;;;;;;;9.14;81.70;99306.19;5013757;28;20074;-76
2023/12/09 00:26:30;;;;;;;48.85;24.30;;;;;;;9.14;81.67;99308.81;5012501;28;20124;-75
2023/12/09 00:28:57;;;;;;;45.63;24.08;;;;;;;9.15;81.60;99297.34;5013773;28;20050;-75
2023/12/09 00:31:23;;;;;;;42.08;22.90;;;;;;;9.15;81.41;99305.22;5013620;28;20479;-76
2023/12/09 00:33:50;;;;;;;44.15;23.77;;;;;;;9.15;81.30;99294.72;5011981;28;20490;-76
2023/12/09 00:36:16;;;;;;;42.42;22.08;;;;;;;9.15;81.43;99299.97;5013639;28;20100;-75
2023/12/09 00:38:43;;;;;;;44.65;23.08;;;;;;;9.17;81.32;99313.03;5013788;28;20065;-77
2023/12/09 00:41:09;;;;;;;42.78;23.23;;;;;;;9.16;81.27;99306.91;5013567;28;20053;-76
2023/12/09 00:43:36;;;;;;;41.10;23.67;;;;;;;9.15;81.19;99304.41;5011936;28;20549;-75
2023/12/09 00:46:03;;;;;;;37.63;21.63;;;;;;;9.14;81.07;99308.81;5013294;28;20046;-76
2023/12/09 00:48:29;;;;;;;45.10;22.42;;;;;;;9.15;81.21;99310.47;5013554;28;20057;-76
2023/12/09 00:50:56;;;;;;;38.05;21.45;;;;;;;9.13;81.18;99302.69;5011772;28;20112;-76
2023/12/09 00:53:23;;;;;;;37.20;20.85;;;;;;;9.12;81.04;99306.25;5013305;28;20046;-75
2023/12/09 00:55:49;;;;;;;40.20;22.17;;;;;;;9.12;81.02;99310.66;5012107;28;20054;-75
2023/12/09 00:58:16;;;;;;;37.40;21.35;;;;;;;9.11;81.10;99307.19;5013268;28;20089;-76
2023/12/09 01:00:42;;;;;;;42.53;21.88;;;;;;;9.10;80.87;99307.28;5011777;28;20482;-76
2023/12/09 01:03:09;;;;;;;38.72;21.83;;;;;;;9.10;80.94;99304.66;5011846;28;20486;-76
2023/12/09 01:05:36;;;;;;;37.03;21.30;;;;;;;9.09;80.96;99308.22;5012779;28;20057;-76
2023/12/09 01:08:02;;;;;;;35.78;21.25;;;;;;;9.07;81.04;99295.19;5013180;28;20050;-76
2023/12/09 01:10:29;;;;;;;41.85;21.20;;;;;;;9.07;81.06;99296.97;5011748;28;20058;-76
2023/12/09 01:12:55;;;;;;;42.35;20.98;;;;;;;9.05;81.14;99312.78;5012956;28;20090;-76
2023/12/09 01:15:22;;;;;;;36.90;21.02;;;;;;;9.04;81.10;99307.66;5012281;28;20554;-76
2023/12/09 01:17:48;;;;;;;38.63;21.50;;;;;;;9.02;81.00;99299.88;5012719;28;20085;-76
2023/12/09 01:20:15;;;;;;;36.28;21.13;;;;;;;9.01;81.10;99303.41;5012905;28;20395;-76
2023/12/09 01:22:42;;;;;;;41.50;20.25;;;;;;;8.99;81.15;99295.63;5012904;28;20092;-76
2023/12/09 01:25:08;;;;;;;35.88;21.73;;;;;;;8.99;81.26;99307.91;5011099;28;20054;-76
2023/12/09 01:27:35;;;;;;;37.22;21.25;;;;;;;8.98;81.26;99309.69;5012360;28;20490;-76
2023/12/09 01:30:02;;;;;;;37.72;21.08;;;;;;;8.99;81.29;99298.25;5011331;28;20148;-75
2023/12/09 01:32:29;;;;;;;37.47;21.85;;;;;;;8.99;81.28;99314.00;5012741;28;20062;-76
2023/12/09 01:34:56;;;;;;;34.92;20.38;;;;;;;8.99;80.97;99315.78;5012527;28;20053;-75
2023/12/09 01:37:23;;;;;;;33.42;20.45;;;;;;;8.97;81.24;99305.38;5011930;28;20121;-76
2023/12/09 01:39:49;;;;;;;42.50;22.55;;;;;;;8.97;81.16;99301.91;5012382;28;20108;-76
2023/12/09 01:42:16;;;;;;;46.63;22.52;;;;;;;8.97;81.24;99302.75;5012314;28;20093;-75
2023/12/09 01:44:43;;;;;;;36.15;20.42;;;;;;;8.95;81.32;99302.00;5012272;28;20136;-76
2023/12/09 01:47:10;;;;;;;37.20;19.85;;;;;;;8.94;81.17;99302.91;5010787;28;20041;-76
2023/12/09 01:49:37;;;;;;;36.13;20.73;;;;;;;8.95;81.27;99306.41;5012360;28;20054;-75
2023/12/09 01:52:04;;;;;;;34.50;19.08;;;;;;;8.94;81.25;99308.16;5012189;28;20140;-76
2023/12/09 01:54:31;;;;;;;37.35;19.52;;;;;;;8.93;81.17;99311.72;5010989;28;20089;-76
2023/12/09 01:56:58;;;;;;;36.60;20.23;;;;;;;8.93;81.16;99310.91;5011577;28;20046;-76
2023/12/09 01:59:25;;;;;;;29.92;17.73;;;;;;;8.93;81.29;99305.66;5010593;28;20061;-76
2023/12/09 02:01:52;;;;;;;37.58;17.92;;;;;;;8.94;81.20;99307.34;5011089;28;20548;-75
2023/12/09 02:04:19;;;;;;;35.58;18.38;;;;;;;8.93;81.27;99311.72;5012180;28;20058;-76
2023/12/09 02:06:46;;;;;;;34.58;18.13;;;;;;;8.93;80.82;99311.72;5011794;28;20050;-75
2023/12/09 02:09:13;;;;;;;35.60;18.25;;;;;;;8.93;81.35;99305.66;5010504;28;20065;-76
2023/12/09 02:11:58;;;;;;;44.38;19.30;;;;;;;8.90;80.69;99301.41;5010625;28;20474;-76
2023/12/09 02:15:04;;;;;;;33.92;15.73;;;;;;;8.90;80.84;99298.78;5010859;28;20057;-77
2023/12/09 02:17:37;;;;;;;29.42;15.43;;;;;;;8.96;81.29;99302.81;5010276;28;20058;-76
2023/12/09 02:20:05;;;;;;;32.42;15.15;;;;;;;8.96;81.32;99297.56;5011611;28;20494;-76
2023/12/09 02:22:32;;;;;;;31.30;16.25;;;;;;;8.96;81.20;99294.94;5011930;28;20092;-76
2023/12/09 02:24:58;;;;;;;27.65;13.85;;;;;;;8.97;81.21;99283.53;5011434;28;20655;-75
2023/12/09 02:27:42;;;;;;;24.42;13.35;;;;;;;8.96;81.16;99290.56;5011509;28;20050;-76
2023/12/09 02:30:14;;;;;;;28.38;13.30;;;;;;;8.96;81.16;99282.69;4990732;28;20057;-76
2023/12/09 02:32:43;;;;;;;31.40;15.40;;;;;;;8.99;81.30;99279.88;4990924;28;20046;-76
2023/12/09 02:35:12;;;;;;;28.90;14.45;;;;;;;8.99;81.30;99269.38;4992003;28;20050;-77
2023/12/09 02:37:39;;;;;;;31.00;13.95;;;;;;;9.00;81.42;99280.72;4991969;28;20062;-76
2023/12/09 02:40:09;;;;;;;29.02;14.32;;;;;;;9.01;81.06;99273.69;5010473;28;20494;-76
2023/12/09 02:42:39;;;;;;;30.98;14.02;;;;;;;9.02;81.22;99278.00;5011373;28;20096;-76
2023/12/09 02:45:07;;;;;;;26.83;13.13;;;;;;;9.03;81.31;99271.81;5011106;28;20084;-76
2023/12/09 02:47:33;;;;;;;23.70;13.38;;;;;;;9.02;81.20;99264.88;5009961;28;20418;-76
2023/12/09 02:50:00;;;;;;;32.55;13.48;;;;;;;9.02;81.01;99272.75;5011378;28;20054;-76
2023/12/09 02:52:27;;;;;;;22.42;12.90;;;;;;;9.02;81.33;99262.25;5011096;28;20116;-76
2023/12/09 02:54:54;;;;;;;33.60;13.60;;;;;;;9.02;81.08;99257.00;5009830;28;20085;-76
2023/12/09 02:57:20;;;;;;;35.03;14.15;;;;;;;9.02;81.38;99262.25;5009640;28;20042;-76
2023/12/09 02:59:47;;;;;;;26.20;13.15;;;;;;;9.03;81.20;99266.56;5010913;28;20465;-76
2023/12/09 03:02:14;;;;;;;27.55;13.32;;;;;;;9.02;81.29;99263.09;5010135;28;20140;-76
2023/12/09 03:04:40;;;;;;;31.33;12.27;;;;;;;9.04;81.18;99255.16;5011159;28;20045;-76
2023/12/09 03:07:07;;;;;;;30.10;13.27;;;;;;;9.03;81.22;99243.78;5010799;28;20050;-75
2023/12/09 03:09:33;;;;;;;25.75;12.15;;;;;;;9.03;81.28;99251.66;5011031;28;20133;-76
2023/12/09 03:12:00;;;;;;;24.73;12.63;;;;;;;9.03;81.26;99253.44;5010721;28;20490;-75
2023/12/09 03:14:27;;;;;;;27.65;11.73;;;;;;;9.04;81.34;99248.09;5011204;28;20056;-75
2023/12/09 03:16:53;;;;;;;22.08;11.75;;;;;;;9.06;81.30;99248.88;5010596;28;20564;-76
2023/12/09 03:19:20;;;;;;;22.63;11.32;;;;;;;9.06;81.39;99248.00;5010887;28;20100;-76
2023/12/09 03:21:46;;;;;;;22.38;11.00;;;;;;;9.06;81.30;99243.63;5009799;28;20054;-75
2023/12/09 03:24:13;;;;;;;18.67;10.23;;;;;;;9.07;81.21;99252.31;5011095;28;20735;-76
2023/12/09 03:26:39;;;;;;;20.50;10.95;;;;;;;9.07;81.14;99245.31;5010742;28;20046;-76
2023/12/09 03:29:06;;;;;;;24.25;10.55;;;;;;;9.08;81.17;99251.41;5010576;28;20568;-75
2023/12/09 03:31:32;;;;;;;19.45;10.38;;;;;;;9.09;81.08;99247.84;5011115;28;20053;-76
2023/12/09 03:33:59;;;;;;;18.60;9.82;;;;;;;9.09;81.24;99235.53;5009831;28;20136;-76
2023/12/09 03:36:26;;;;;;;21.77;9.77;;;;;;;9.10;81.20;99239.03;5010512;28;20240;-75
2023/12/09 03:41:40;;;;;;;26.35;10.02;;;;;;;9.12;80.91;99229.25;5110673;22;20437;-73
2023/12/09 03:44:07;;;;;;;27.20;10.05;;;;;;;9.11;80.93;99220.56;5031927;28;20084;-73
2023/12/09 03:46:33;;;;;;;23.90;10.50;;;;;;;9.12;81.17;99218.75;5031513;28;20048;-77
2023/12/09 03:49:00;;;;;;;23.83;9.70;;;;;;;9.12;81.21;99216.13;5024478;28;20045;-73
2023/12/09 03:51:27;;;;;;;21.50;8.52;;;;;;;9.12;81.33;99224.88;5031441;28;20099;-76
2023/12/09 03:53:54;;;;;;;19.52;9.77;;;;;;;9.12;81.37;99206.47;5031587;28;20103;-73
2023/12/09 03:56:21;;;;;;;16.92;9.13;;;;;;;9.13;81.16;99213.41;5031440;28;20052;-74
2023/12/09 03:58:48;;;;;;;18.13;8.45;;;;;;;9.13;81.13;99209.97;5030038;28;20049;-74
2023/12/09 04:01:15;;;;;;;18.20;8.27;;;;;;;9.13;81.09;99217.84;5031470;28;20409;-73
2023/12/09 04:03:42;;;;;;;19.33;7.97;;;;;;;9.14;81.15;99214.28;5031692;28;20049;-73
2023/12/09 04:06:09;;;;;;;18.63;8.20;;;;;;;9.14;81.02;99214.28;5031333;28;20441;-74
2023/12/09 04:08:36;;;;;;;15.73;7.63;;;;;;;9.15;81.28;99204.63;5029476;28;20487;-74
2023/12/09 04:11:04;;;;;;;17.70;9.27;;;;;;;9.14;81.12;99206.41;5031075;28;20050;-71
2023/12/09 04:13:31;;;;;;;17.55;8.35;;;;;;;9.16;81.27;99199.25;5031019;28;20046;-75
2023/12/09 04:15:58;;;;;;;17.88;7.65;;;;;;;9.17;81.17;99208.00;5030686;28;20045;-71
2023/12/09 04:18:24;;;;;;;19.20;8.40;;;;;;;9.19;81.05;99211.38;5028740;28;20103;-72
2023/12/09 04:20:51;;;;;;;24.27;7.90;;;;;;;9.18;81.02;99205.28;5028994;28;20049;-73
2023/12/09 04:23:21;;;;;;;18.25;7.93;;;;;;;9.19;81.28;99200.88;5029630;28;20103;-73
2023/12/09 04:25:47;;;;;;;16.70;7.53;;;;;;;9.19;81.14;99214.84;5033163;28;20394;-73
2023/12/09 04:28:15;;;;;;;19.00;7.78;;;;;;;9.17;80.86;99208.84;5033274;28;20052;-72
2023/12/09 04:30:41;;;;;;;21.60;8.27;;;;;;;9.18;80.91;99207.03;5020253;28;20483;-73
2023/12/09 04:33:08;;;;;;;18.75;6.78;;;;;;;9.19;80.98;99208.75;5014572;28;20129;-74
2023/12/09 04:35:35;;;;;;;21.23;7.05;;;;;;;9.19;81.06;99217.47;5014256;28;20494;-74
2023/12/09 04:38:01;;;;;;;18.40;7.53;;;;;;;9.19;80.94;99216.63;5014685;28;20108;-73
2023/12/09 04:40:28;;;;;;;18.05;6.40;;;;;;;9.18;80.98;99214.91;5023333;28;20207;-74
2023/12/09 04:42:54;;;;;;;18.90;7.78;;;;;;;9.19;81.02;99219.25;5034195;28;20084;-73
2023/12/09 04:45:22;;;;;;;23.60;7.03;;;;;;;9.20;81.01;99213.06;5033876;28;20099;-71
2023/12/09 04:47:49;;;;;;;20.05;7.43;;;;;;;9.20;81.17;99206.00;5034024;28;20132;-75
2023/12/09 04:50:16;;;;;;;16.50;6.50;;;;;;;9.22;81.03;99206.78;5029753;28;20034;-73
2023/12/09 04:52:43;;;;;;;19.67;7.30;;;;;;;9.23;81.09;99210.22;5014383;28;20088;-73
2023/12/09 04:55:09;;;;;;;15.75;6.70;;;;;;;9.23;80.84;99213.72;5014134;28;20395;-74
2023/12/09 04:57:36;;;;;;;18.88;7.38;;;;;;;9.24;80.97;99207.53;5014202;28;20562;-72
2023/12/09 05:00:05;;;;;;;17.85;7.18;;;;;;;9.24;80.73;99199.63;5015240;28;20034;-76
2023/12/09 05:02:32;;;;;;;16.67;6.53;;;;;;;9.25;80.68;99205.75;5013900;28;20104;-73
2023/12/09 05:04:58;;;;;;;13.55;6.07;;;;;;;9.25;80.88;99201.34;5013754;28;20104;-74
2023/12/09 05:07:26;;;;;;;21.35;7.30;;;;;;;9.27;80.88;99203.03;5013907;28;20052;-75
2023/12/09 05:09:53;;;;;;;18.90;5.90;;;;;;;9.27;80.83;99197.78;5015584;28;20046;-73
2023/12/09 05:12:19;;;;;;;20.40;7.18;;;;;;;9.27;80.70;99195.97;5015188;28;20057;-76
2023/12/09 05:14:46;;;;;;;20.58;6.60;;;;;;;9.27;80.72;99200.41;5013616;28;20046;-73
2023/12/09 05:17:13;;;;;;;18.30;6.70;;;;;;;9.27;80.58;99197.78;5013751;28;20046;-72
2023/12/09 05:19:40;;;;;;;12.95;6.20;;;;;;;9.27;80.54;99192.53;5013874;28;20541;-75
2023/12/09 05:22:07;;;;;;;18.63;6.38;;;;;;;9.26;80.43;99186.41;5016574;28;20038;-72
2023/12/09 05:24:34;;;;;;;17.50;6.32;;;;;;;9.28;80.69;99178.44;5014946;28;20053;-74
2023/12/09 05:27:00;;;;;;;15.68;7.00;;;;;;;9.27;80.59;99171.50;5013445;28;20046;-74
2023/12/09 05:29:27;;;;;;;15.85;6.18;;;;;;;9.28;80.50;99167.94;5013420;28;20041;-72
2023/12/09 05:31:53;;;;;;;20.05;6.93;;;;;;;9.26;80.59;99168.03;5015029;28;20038;-72
2023/12/09 05:34:20;;;;;;;14.57;7.15;;;;;;;9.25;80.41;99164.59;5013457;28;20042;-73
2023/12/09 05:36:46;;;;;;;19.83;6.00;;;;;;;9.27;80.64;99171.50;5013311;28;20132;-72
2023/12/09 05:39:14;;;;;;;16.08;5.93;;;;;;;9.25;80.52;99172.47;5013254;28;20491;-73
2023/12/09 05:41:42;;;;;;;19.38;6.20;;;;;;;9.26;80.52;99168.03;5014092;28;20060;-75
2023/12/09 05:44:08;;;;;;;16.40;6.13;;;;;;;9.24;80.49;99168.13;5013152;28;20058;-72
2023/12/09 05:46:36;;;;;;;11.38;5.93;;;;;;;9.24;80.53;99162.88;5013216;28;20092;-72
2023/12/09 05:49:02;;;;;;;19.27;6.47;;;;;;;9.24;80.31;99172.56;5013161;28;20053;-72
2023/12/09 05:51:30;;;;;;;18.92;6.25;;;;;;;9.23;80.48;99171.69;5013602;28;20069;-75
2023/12/09 05:53:56;;;;;;;21.80;6.43;;;;;;;9.22;80.39;99172.63;5014325;28;20045;-73
2023/12/09 05:56:23;;;;;;;14.55;5.18;;;;;;;9.21;80.32;99167.47;5012841;28;20480;-71
2023/12/09 05:58:49;;;;;;;14.73;5.53;;;;;;;9.19;80.32;99170.19;5012929;28;20045;-71
2023/12/09 06:01:16;;;;;;;14.95;5.47;;;;;;;9.19;80.20;99177.25;5012947;28;20076;-74
2023/12/09 06:03:43;;;;;;;13.15;5.60;;;;;;;9.18;80.49;99172.91;4997135;28;20053;-72
2023/12/09 06:06:10;;;;;;;17.17;6.05;;;;;;;9.17;80.42;99177.34;5012765;28;20042;-72
2023/12/09 06:08:36;;;;;;;14.02;5.25;;;;;;;9.17;80.32;99172.09;5012874;28;20129;-72
2023/12/09 06:11:03;;;;;;;14.93;5.65;;;;;;;9.16;80.37;99170.38;5012584;28;20053;-75
2023/12/09 06:13:31;;;;;;;14.63;5.28;;;;;;;9.14;80.32;99169.63;5015257;28;20079;-72
2023/12/09 06:15:57;;;;;;;17.60;5.93;;;;;;;9.15;80.19;99146.84;5012475;28;20521;-75
2023/12/09 06:18:25;;;;;;;11.30;4.97;;;;;;;9.13;79.80;99160.91;4995354;28;20046;-74
2023/12/09 06:20:51;;;;;;;21.45;6.07;;;;;;;9.12;79.68;99134.72;5014002;28;20046;-73
2023/12/09 06:23:18;;;;;;;18.10;5.72;;;;;;;9.10;79.33;99134.00;5012490;28;20046;-73
2023/12/09 06:25:44;;;;;;;14.57;5.50;;;;;;;9.06;79.10;99128.09;5012174;28;20115;-73
2023/12/09 06:28:11;;;;;;;18.20;4.90;;;;;;;9.03;79.31;99123.03;5012313;28;20054;-72
2023/12/09 06:30:37;;;;;;;14.40;5.38;;;;;;;9.01;79.14;99134.56;5013162;28;20045;-77
2023/12/09 06:33:04;;;;;;;15.02;5.43;;;;;;;8.97;79.20;99128.66;5012103;28;20137;-77
2023/12/09 06:35:31;;;;;;;13.23;4.80;;;;;;;8.93;78.93;99122.72;5020948;28;20095;-74
2023/12/09 06:37:57;;;;;;;12.10;4.97;;;;;;;8.92;78.53;99125.44;5031109;28;20099;-75
2023/12/09 06:40:24;;;;;;;10.07;4.85;;;;;;;8.87;79.16;99123.13;5030711;28;20448;-74
2023/12/09 06:42:51;;;;;;;13.30;4.63;;;;;;;8.83;78.87;99126.88;5031324;28;20045;-71
2023/12/09 06:45:17;;;;;;;13.55;4.53;;;;;;;8.78;78.52;99135.00;5028011;28;20436;-72
2023/12/09 06:47:44;;;;;;;12.07;4.25;;;;;;;8.73;78.57;99124.78;5013316;28;20521;-76
2023/12/09 06:50:11;;;;;;;19.88;4.60;;;;;;;8.71;78.82;99133.69;5011978;28;20065;-74
2023/12/09 06:52:39;;;;;;;15.35;4.78;;;;;;;8.67;78.83;99132.19;4994539;28;20054;-75
2023/12/09 06:55:06;;;;;;;13.00;4.70;;;;;;;8.62;78.72;99121.09;4994910;28;20050;-74
2023/12/09 06:57:33;;;;;;;14.32;4.47;;;;;;;8.59;78.97;99128.22;5031950;28;20106;-74
2023/12/09 07:00:00;;;;;;;12.30;4.40;;;;;;;8.55;79.28;99124.09;5031771;28;20107;-74
2023/12/09 07:02:27;;;;;;;13.52;4.53;;;;;;;8.54;79.65;99117.16;5031517;28;20095;-73
2023/12/09 07:05:13;;;;;;;14.35;4.07;;;;;;;8.53;79.19;99117.25;5016291;28;20057;-72
2023/12/09 07:07:40;;;;;;;13.02;4.90;;;;;;;8.53;79.73;99117.25;5023134;28;20391;-74
2023/12/09 07:10:08;;;;;;;13.20;4.88;;;;;;;8.52;79.27;99113.75;5031465;28;20532;-74
2023/12/09 07:12:34;;;;;;;12.73;4.82;;;;;;;8.51;79.13;99104.19;5014158;28;20050;-73
2023/12/09 07:15:01;;;;;;;14.63;4.88;;;;;;;8.48;79.26;99102.59;5013773;28;20539;-76
2023/12/09 07:17:27;;;;;;;7.63;5.13;;;;;;;8.47;79.38;99097.44;5022780;28;20049;-79
2023/12/09 07:19:56;;;;;;;13.73;4.47;;;;;;;8.47;79.87;99095.66;5013795;28;20056;-73
2023/12/09 07:22:23;;;;;;;11.32;4.68;;;;;;;8.45;79.45;99087.03;5031503;28;20052;-76
2023/12/09 07:24:49;;;;;;;16.25;5.07;;;;;;;8.46;79.64;99093.97;5031358;28;20133;-74
2023/12/09 07:27:16;;;;;;;16.10;4.97;;;;;;;8.46;79.25;99085.25;5025792;28;20103;-73
2023/12/09 07:29:42;;;;;;;18.88;4.78;;;;;;;8.44;78.96;99089.75;5031355;28;20095;-75
2023/12/09 07:32:09;;;;;;;18.05;5.00;;;;;;;8.43;79.03;99091.53;5031305;28;20528;-72
2023/12/09 07:34:36;;;;;;;15.70;4.90;;;;;;;8.40;78.62;99086.47;5031062;28;20045;-75
2023/12/09 07:37:03;;;;;;;10.65;4.43;;;;;;;8.38;78.56;99079.63;5008838;28;20049;-74
2023/12/09 07:39:29;;;;;;;15.10;4.72;;;;;;;8.34;78.57;99069.31;5026633;28;20479;-73
2023/12/09 07:41:56;;;;;;;14.65;4.20;;;;;;;8.30;78.17;99078.28;5030977;28;20470;-75
2023/12/09 07:44:23;;;;;;;13.27;4.82;;;;;;;8.28;78.35;99079.31;5031320;28;20046;-75
2023/12/09 07:46:50;;;;;;;14.73;4.53;;;;;;;8.24;78.25;99076.03;5030632;28;20437;-74
2023/12/09 07:49:17;;;;;;;8.50;4.25;;;;;;;8.19;78.31;99071.06;5026623;28;20482;-72
2023/12/09 07:51:44;;;;;;;12.93;4.43;;;;;;;8.16;78.24;99067.78;5031327;28;20504;-77
2023/12/09 07:54:10;;;;;;;12.45;4.28;;;;;;;8.13;77.95;99070.56;5030805;28;20083;-73
2023/12/09 07:56:37;;;;;;;15.05;4.00;;;;;;;8.09;78.20;99056.81;5030238;28;20041;-74
2023/12/09 07:59:03;;;;;;;14.65;5.05;;;;;;;8.06;78.32;99059.59;5021456;28;20478;-76
2023/12/09 08:01:30;;;;;;;15.30;4.25;;;;;;;8.03;78.33;99065.00;5034418;28;20080;-73
2023/12/09 08:03:57;;;;;;;11.90;4.90;;;;;;;8.01;78.51;99056.41;5034213;28;20053;-74
2023/12/09 08:06:23;;;;;;;10.77;3.72;;;;;;;7.98;78.53;99046.94;5033978;28;20053;-74
2023/12/09 08:08:51;;;;;;;8.00;3.88;;;;;;;7.96;78.50;99043.53;5025577;28;20049;-75
2023/12/09 08:11:21;;;;;;;14.45;4.18;;;;;;;7.94;79.01;99032.31;5034120;28;20049;-74
2023/12/09 08:13:48;;;;;;;10.90;3.83;;;;;;;7.93;78.88;99023.59;5034110;28;20042;-73
2023/12/09 08:16:14;;;;;;;12.40;3.40;;;;;;;7.93;78.90;99022.78;5016480;28;20118;-75
2023/12/09 08:18:42;;;;;;;15.20;3.45;;;;;;;7.92;78.96;99024.53;5027142;28;20053;-75
2023/12/09 08:21:10;;;;;;;8.32;3.85;;;;;;;7.93;78.91;99028.84;5032014;28;20040;-75
2023/12/09 08:23:38;;;;;;;9.00;3.45;;;;;;;7.93;79.16;99023.59;5034412;28;20046;-74
2023/12/09 08:26:05;;;;;;;11.25;3.88;;;;;;;7.93;79.40;99023.59;5034114;28;20429;-74
2023/12/09 08:28:31;;;;;;;11.07;4.20;;;;;;;7.94;79.57;99014.84;5014203;28;20474;-75
2023/12/09 08:30:58;;;;;;;9.68;3.63;;;;;;;7.95;79.29;99032.25;5028342;28;20042;-75
2023/12/09 08:33:25;;;;;;;8.48;3.90;;;;;;;7.96;79.53;99035.69;5034132;28;20079;-74
2023/12/09 08:35:51;;;;;;;10.70;3.83;;;;;;;7.97;79.53;99023.44;5034488;28;20056;-76
2023/12/09 08:38:18;;;;;;;11.60;4.20;;;;;;;7.99;79.66;99016.34;5028465;28;20425;-76
2023/12/09 08:40:45;;;;;;;17.83;3.78;;;;;;;8.01;79.90;99006.59;5031093;28;20490;-75
2023/12/09 08:43:11;;;;;;;8.95;3.70;;;;;;;8.03;80.14;99002.09;5034070;28;20111;-76
2023/12/09 08:45:40;;;;;;;10.77;4.07;;;;;;;8.05;80.21;98997.63;5033904;28;20041;-75
2023/12/09 08:48:07;;;;;;;10.23;4.00;;;;;;;8.07;79.94;98995.75;5034277;28;20125;-75
2023/12/09 08:50:33;;;;;;;7.55;3.85;;;;;;;8.10;79.77;98998.19;5034177;28;20080;-73
2023/12/09 08:53:02;;;;;;;8.05;4.10;;;;;;;8.13;79.68;99003.25;5034061;28;20103;-73
2023/12/09 08:55:28;;;;;;;10.77;4.00;;;;;;;8.15;79.57;99006.63;5033827;28;20087;-72
2023/12/09 08:57:55;;;;;;;15.65;3.90;;;;;;;8.18;79.87;99002.97;5033851;28;20119;-74
2023/12/09 09:00:25;;;;;;;14.52;4.43;;;;;;;8.19;79.96;98996.81;5034011;28;20041;-75
2023/12/09 09:02:55;;;;;;;12.65;4.13;;;;;;;8.21;79.69;99011.53;5033977;28;20041;-76
2023/12/09 09:05:23;;;;;;;11.77;3.85;;;;;;;8.24;79.73;99000.00;5033802;28;20474;-77
2023/12/09 09:07:50;;;;;;;11.02;3.92;;;;;;;8.26;79.89;99005.16;5033801;28;20045;-72
2023/12/09 09:10:19;;;;;;;10.65;4.05;;;;;;;8.29;80.04;98997.94;5033243;28;20049;-73
2023/12/09 09:12:47;;;;;;;8.90;3.75;;;;;;;8.32;79.98;99000.38;5015999;28;20077;-75
2023/12/09 09:15:15;;;;;;;9.60;3.72;;;;;;;8.36;80.06;99001.03;5016027;28;20168;-75
2023/12/09 09:17:42;;;;;;;8.85;3.47;;;;;;;8.39;79.96;99000.88;5033671;28;20132;-75
2023/12/09 09:20:10;;;;;;;10.07;4.03;;;;;;;8.43;79.82;98998.88;5033465;28;20052;-75
2023/12/09 09:22:37;;;;;;;11.43;3.90;;;;;;;8.46;80.11;98994.28;5033379;28;20041;-73
2023/12/09 09:25:05;;;;;;;11.70;3.90;;;;;;;8.50;79.81;98989.72;5033136;28;20053;-74
2023/12/09 09:27:31;;;;;;;9.73;3.30;;;;;;;8.52;80.02;98982.59;5033643;28;20049;-72
2023/12/09 09:30:09;;;;;;;7.88;3.67;;;;;;;8.54;79.10;98975.50;5033661;28;20071;-74
2023/12/09 09:32:38;;;;;;;6.78;3.17;;;;;;;8.60;79.99;98969.88;5015278;28;20107;-76
2023/12/09 09:35:05;;;;;;;10.10;3.45;;;;;;;8.64;79.99;98954.81;5032261;28;20505;-76
2023/12/09 09:37:32;;;;;;;8.70;3.08;;;;;;;8.66;79.87;98952.94;5032301;28;20037;-73
2023/12/09 09:39:58;;;;;;;7.82;3.15;;;;;;;8.71;80.01;98945.59;5130271;22;20103;-86
2023/12/09 09:42:43;;;;;;;9.27;3.22;;;;;;;8.71;78.63;98942.97;5032066;28;20075;-85
2023/12/09 09:45:23;;;;;;;11.40;3.40;;;;;;;8.75;78.45;98937.53;5032080;28;20057;-85
2023/12/09 09:47:56;;;;;;;10.30;3.60;;;;;;;8.82;79.42;98933.59;5032849;28;20128;-85
2023/12/09 09:50:25;;;;;;;9.38;3.17;;;;;;;8.84;79.35;98936.97;5033044;28;20046;-85
2023/12/09 09:52:53;;;;;;;9.02;3.55;;;;;;;8.88;79.41;98941.06;5015358;28;20089;-87
2023/12/09 09:55:22;;;;;;;7.03;3.35;;;;;;;8.92;79.77;98931.22;5032744;28;20115;-85
2023/12/09 09:57:49;;;;;;;6.95;3.15;;;;;;;8.94;79.75;98913.59;5027348;28;20045;-85
2023/12/09 10:00:19;;;;;;;9.55;3.55;;;;;;;8.98;79.74;98921.16;5010947;28;20516;-85
2023/12/09 10:02:48;;;;;;;9.05;3.00;;;;;;;9.03;79.49;98914.78;5032534;28;20084;-84
2023/12/09 10:05:17;;;;;;;8.80;3.25;;;;;;;9.07;80.00;98903.16;5032583;28;20045;-85
2023/12/09 10:07:44;;;;;;;7.43;3.20;;;;;;;9.11;79.79;98894.97;5020579;28;20088;-85
2023/12/09 10:10:13;;;;;;;8.02;3.17;;;;;;;9.16;79.62;98889.41;5012752;28;20054;-85
2023/12/09 10:12:40;;;;;;;8.48;3.20;;;;;;;9.20;79.52;98882.19;5012734;28;20050;-85
2023/12/09 10:15:07;;;;;;;9.40;3.08;;;;;;;9.23;79.80;98872.31;4995080;28;20054;-85
2023/12/09 10:17:35;;;;;;;8.68;3.25;;;;;;;9.29;79.60;98880.75;4999160;28;20048;-86
2023/12/09 10:20:05;;;;;;;10.07;3.67;;;;;;;9.33;79.53;98883.06;5021107;28;20050;-85
2023/12/09 10:22:32;;;;;;;6.90;3.15;;;;;;;9.39;79.86;98892.34;5011915;28;20056;-85
2023/12/09 10:24:59;;;;;;;8.73;3.10;;;;;;;9.44;79.93;98863.97;5012865;28;20050;-85
2023/12/09 10:27:25;;;;;;;9.48;3.15;;;;;;;9.51;79.84;98854.75;5029566;28;20497;-84
2023/12/09 10:29:54;;;;;;;9.85;3.40;;;;;;;9.57;79.86;98855.28;5032089;28;20056;-85
2023/12/09 10:32:20;;;;;;;12.27;3.10;;;;;;;9.62;79.89;98846.16;5032202;28;20151;-84
2023/12/09 10:34:48;;;;;;;7.32;3.10;;;;;;;9.69;79.98;98828.16;5032025;28;20115;-85
2023/12/09 10:37:17;;;;;;;11.95;2.97;;;;;;;9.76;79.72;98826.78;5019523;28;20038;-85
2023/12/09 10:39:47;;;;;;;8.80;3.05;;;;;;;9.82;79.46;98822.03;5012091;28;20045;-85
2023/12/09 10:42:14;;;;;;;7.68;3.03;;;;;;;9.87;79.29;98817.34;5012094;28;20053;-85
2023/12/09 10:44:41;;;;;;;7.13;2.70;;;;;;;9.90;79.15;98799.56;5012398;28;20498;-85
2023/12/09 10:47:09;;;;;;;8.90;2.65;;;;;;;9.95;78.87;98794.00;5020526;28;20079;-85
2023/12/09 10:49:36;;;;;;;6.03;2.83;;;;;;;9.98;78.39;98782.41;5031624;28;20057;-85
2023/12/09 10:52:04;;;;;;;9.30;2.67;;;;;;;10.01;78.65;98761.13;5031796;28;20053;-85
2023/12/09 10:54:31;;;;;;;13.13;2.70;;;;;;;10.04;78.30;98760.94;5031688;28;20076;-85
2023/12/09 10:56:58;;;;;;;7.45;2.63;;;;;;;10.06;78.14;98742.41;5026374;28;20050;-85
2023/12/09 10:59:28;;;;;;;10.48;2.42;;;;;;;10.07;77.67;98733.56;5012387;28;20050;-85
2023/12/09 11:01:57;;;;;;;6.35;2.60;;;;;;;10.08;77.88;98725.59;5011889;28;20066;-85
2023/12/09 11:04:24;;;;;;;7.28;2.40;;;;;;;10.11;78.01;98729.78;5011962;28;20046;-85
2023/12/09 11:06:56;;;;;;;8.82;2.60;;;;;;;10.11;78.00;98720.13;4994807;28;20054;-85
2023/12/09 11:09:23;;;;;;;6.47;2.45;;;;;;;10.14;77.99;98705.91;5031361;28;20052;-86
2023/12/09 11:14:37;;;;;;;4.90;2.30;;;;;;;10.17;77.48;98692.53;5030995;28;20045;-85
2023/12/09 11:17:34;;;;;;;6.35;1.88;;;;;;;10.14;75.74;98682.22;5030216;28;20049;-85
2023/12/09 11:20:09;;;;;;;7.40;2.22;;;;;;;10.18;76.08;98678.44;5011245;28;20046;-85
2023/12/09 11:22:38;;;;;;;12.02;2.85;;;;;;;10.19;77.38;98685.38;5011123;28;20050;-85
2023/12/09 11:25:05;;;;;;;7.53;2.65;;;;;;;10.20;77.39;98671.25;5010769;28;20085;-85
2023/12/09 11:27:37;;;;;;;7.40;2.45;;;;;;;10.21;76.44;98672.09;5011300;28;20565;-85
2023/12/09 11:30:05;;;;;;;5.40;2.10;;;;;;;10.22;77.51;98665.88;5030147;28;20121;-85
2023/12/09 11:32:31;;;;;;;7.22;2.00;;;;;;;10.23;77.38;98662.31;5030859;28;20088;-85
2023/12/09 11:34:58;;;;;;;6.32;2.17;;;;;;;10.24;77.75;98667.44;5032336;28;20045;-85
2023/12/09 11:37:30;;;;;;;7.43;2.30;;;;;;;10.26;77.64;98648.94;5034741;28;20187;-85
2023/12/09 11:39:57;;;;;;;13.43;2.35;;;;;;;10.26;77.64;98639.25;5017374;28;20053;-85